createdAt,value
2017-12-13T19:54:08.336Z,96684.96
2017-12-13T19:56:37.436Z,96682.12
2017-12-13T19:59:06.008Z,96676.50
2017-12-13T20:01:35.172Z,96662.13
2017-12-13T20:04:04.180Z,96651.84
2017-12-13T20:06:33.206Z,96650.69
2017-12-13T20:09:01.558Z,96658.94
2017-12-13T20:11:29.904Z,96654.59
2017-12-13T20:13:59.262Z,96654.59
2017-12-13T20:16:27.619Z,96651.67
2017-12-13T20:18:55.918Z,96644.59
2017-12-13T20:21:24.747Z,96642.91
2017-12-13T20:23:52.990Z,96638.66
2017-12-13T20:26:21.370Z,96635.16
2017-12-13T20:28:49.765Z,96632.06
2017-12-13T20:31:18.118Z,96618.55
2017-12-13T20:33:46.835Z,96599.60
2017-12-13T20:36:16.005Z,96581.14
2017-12-13T20:38:44.350Z,96572.98
2017-12-13T20:41:13.198Z,96554.80
2017-12-13T20:43:41.560Z,96540.23
2017-12-13T20:46:10.080Z,96535.86
2017-12-13T20:48:39.241Z,96499.80
2017-12-13T20:51:07.591Z,96474.55
2017-12-13T20:53:35.888Z,96466.48
2017-12-13T20:56:04.288Z,96488.17
2017-12-13T20:58:32.635Z,96471.55
2017-12-13T21:01:00.992Z,96458.61
2017-12-13T21:03:29.868Z,96444.52
2017-12-13T21:05:58.210Z,96429.88
2017-12-13T21:08:26.555Z,96419.55
2017-12-13T21:10:55.213Z,96402.86
2017-12-13T21:13:23.574Z,96405.39
2017-12-13T21:15:51.949Z,96417.64
2017-12-13T21:18:20.315Z,96393.08
2017-12-13T21:20:49.960Z,96391.41
2017-12-13T21:23:19.051Z,96392.38
2017-12-13T21:25:47.544Z,96384.31
2017-12-13T21:28:16.624Z,96365.64
2017-12-13T21:30:46.516Z,96354.48
2017-12-13T21:33:14.894Z,96343.00
2017-12-13T21:35:45.099Z,96352.52
2017-12-13T21:38:14.432Z,96339.17
2017-12-13T21:40:42.787Z,96348.25
2017-12-13T21:43:11.183Z,96347.56
2017-12-13T21:45:39.488Z,96338.70
2017-12-13T21:48:07.834Z,96331.66
2017-12-13T21:50:37.555Z,96333.63
2017-12-13T21:53:06.376Z,96320.73
2017-12-13T21:55:34.841Z,96308.64
2017-12-13T21:58:03.642Z,96309.04
2017-12-13T22:00:32.017Z,96299.33
2017-12-13T22:03:01.237Z,96288.86
2017-12-13T22:05:29.783Z,96282.55
2017-12-13T22:08:00.497Z,96281.30
2017-12-13T22:10:28.834Z,96269.95
2017-12-13T22:12:58.013Z,96266.54
2017-12-13T22:15:26.678Z,96264.13
2017-12-13T22:17:55.137Z,96253.92
2017-12-13T22:20:23.478Z,96252.97
2017-12-13T22:22:51.911Z,96250.73
2017-12-13T22:25:20.789Z,96244.14
2017-12-13T22:27:49.127Z,96238.02
2017-12-13T22:30:17.518Z,96235.09
2017-12-13T22:32:45.866Z,96222.20
2017-12-13T22:35:14.264Z,96218.69
2017-12-13T22:37:42.677Z,96221.03
2017-12-13T22:40:11.170Z,96214.92
2017-12-13T22:42:39.481Z,96207.06
2017-12-13T22:45:07.832Z,96203.27
2017-12-13T22:47:36.129Z,96200.37
2017-12-13T22:50:04.486Z,96189.40
2017-12-13T22:52:33.506Z,96195.72
2017-12-13T22:55:02.328Z,96190.89
2017-12-13T22:57:30.680Z,96190.89
2017-12-13T22:59:59.103Z,96185.11
2017-12-13T23:02:27.446Z,96184.05
2017-12-13T23:04:55.786Z,96178.15
2017-12-13T23:07:24.829Z,96167.65
2017-12-13T23:09:53.910Z,96173.47
2017-12-13T23:12:22.263Z,96168.13
2017-12-13T23:14:50.612Z,96167.16
2017-12-13T23:17:19.709Z,96159.49
2017-12-13T23:19:48.012Z,96158.03
2017-12-13T23:22:16.364Z,96161.48
2017-12-13T23:24:44.673Z,96161.86
2017-12-13T23:27:12.983Z,96163.97
2017-12-13T23:29:41.343Z,96149.52
2017-12-13T23:32:09.647Z,96155.79
2017-12-13T23:34:37.957Z,96151.82
2017-12-13T23:37:06.328Z,96163.55
2017-12-13T23:39:34.637Z,96137.22
2017-12-13T23:42:02.932Z,96160.42
2017-12-13T23:44:31.462Z,96150.33
2017-12-13T23:46:59.762Z,96158.45
2017-12-13T23:49:28.070Z,96157.97
2017-12-13T23:51:56.424Z,96151.77
2017-12-13T23:54:24.732Z,96145.19
2017-12-13T23:56:54.558Z,96142.88
2017-12-13T23:59:22.908Z,96151.31
